createdAt,value
2018-08-19T00:00:52.810Z,99686.00
2018-08-19T00:03:05.317Z,99683.00
2018-08-19T00:05:16.734Z,99681.00
2018-08-19T00:07:22.627Z,99683.00
2018-08-19T00:09:28.622Z,99680.00
2018-08-19T00:11:35.795Z,99681.00
2018-08-19T00:13:42.625Z,99683.00
2018-08-19T00:15:48.793Z,99681.00
2018-08-19T00:17:57.138Z,99686.00
2018-08-19T00:20:06.222Z,99677.00
2018-08-19T00:22:12.325Z,99682.00
2018-08-19T00:24:19.317Z,99678.00
2018-08-19T00:26:23.685Z,99679.00
2018-08-19T00:28:27.546Z,99680.00
2018-08-19T00:30:35.837Z,99683.00
2018-08-19T00:32:49.206Z,99684.00
2018-08-19T00:34:56.096Z,99687.00
2018-08-19T00:37:03.986Z,99688.00
2018-08-19T00:39:12.782Z,99689.00
2018-08-19T00:41:17.756Z,99696.00
2018-08-19T00:43:21.997Z,99691.00
2018-08-19T00:45:26.376Z,99688.00
2018-08-19T00:47:30.723Z,99683.00
2018-08-19T00:49:34.740Z,99686.00
2018-08-19T00:51:43.969Z,99680.00
2018-08-19T00:53:47.952Z,99688.00
2018-08-19T00:55:51.602Z,99686.00
2018-08-19T00:57:58.263Z,99683.00
2018-08-19T01:00:02.311Z,99686.00
2018-08-19T01:02:11.826Z,99681.00
2018-08-19T01:04:23.357Z,99685.00
2018-08-19T01:06:27.614Z,99673.00
2018-08-19T01:08:31.733Z,99681.00
2018-08-19T01:10:36.194Z,99682.00
2018-08-19T01:12:41.174Z,99682.00
2018-08-19T01:14:44.887Z,99690.00
2018-08-19T01:16:48.863Z,99690.00
2018-08-19T01:18:57.993Z,99684.00
2018-08-19T01:21:14.459Z,99685.00
2018-08-19T01:23:22.141Z,99684.00
2018-08-19T01:25:27.454Z,99681.00
2018-08-19T01:27:31.957Z,99678.00
2018-08-19T01:29:45.295Z,99683.00
2018-08-19T01:31:49.934Z,99687.00
2018-08-19T01:33:54.041Z,99684.00
2018-08-19T01:35:58.620Z,99689.00
2018-08-19T01:38:02.397Z,99688.00
2018-08-19T01:40:10.102Z,99693.00
2018-08-19T01:42:19.323Z,99693.00
2018-08-19T01:44:27.073Z,99696.00
2018-08-19T01:46:40.531Z,99700.00
2018-08-19T01:48:44.535Z,99697.00
2018-08-19T01:50:48.528Z,99698.00
2018-08-19T01:52:52.441Z,99697.00
2018-08-19T01:54:56.226Z,99697.00
2018-08-19T01:57:01.621Z,99697.00
2018-08-19T01:59:05.973Z,99698.00
2018-08-19T02:01:10.217Z,99694.00
2018-08-19T02:03:17.540Z,99694.00
2018-08-19T02:05:25.378Z,99691.00
2018-08-19T02:07:32.298Z,99690.00
2018-08-19T02:09:42.252Z,99685.00
2018-08-19T02:11:47.313Z,99684.00
2018-08-19T02:13:52.111Z,99680.00
2018-08-19T02:15:59.034Z,99686.00
2018-08-19T02:18:04.363Z,99682.00
2018-08-19T02:20:08.228Z,99681.00
2018-08-19T02:22:12.581Z,99681.00
2018-08-19T02:24:18.262Z,99674.00
2018-08-19T02:26:30.951Z,99681.00
2018-08-19T02:28:34.964Z,99680.00
2018-08-19T02:30:49.941Z,99676.00
2018-08-19T02:32:54.155Z,99679.00
2018-08-19T02:34:57.762Z,99669.00
2018-08-19T02:37:17.104Z,99674.00
2018-08-19T02:39:25.697Z,99674.00
2018-08-19T02:41:31.897Z,99666.00
2018-08-19T02:43:48.825Z,99673.00
2018-08-19T02:45:52.785Z,99671.00
2018-08-19T02:47:57.701Z,99668.00
2018-08-19T02:50:03.513Z,99664.00
2018-08-19T02:52:13.907Z,99665.00
2018-08-19T02:54:19.342Z,99665.00
2018-08-19T02:56:23.845Z,99661.00
2018-08-19T02:58:27.797Z,99668.00
2018-08-19T03:00:31.674Z,99669.00
2018-08-19T03:02:37.414Z,99667.00
2018-08-19T03:04:41.095Z,99667.00
2018-08-19T03:06:44.664Z,99661.00
2018-08-19T03:08:54.255Z,99659.00
2018-08-19T03:11:03.032Z,99663.00
2018-08-19T03:13:11.623Z,99663.00
2018-08-19T03:15:16.299Z,99664.00
2018-08-19T03:17:20.419Z,99664.00
2018-08-19T03:19:24.190Z,99665.00
2018-08-19T03:21:27.756Z,99665.00
2018-08-19T03:23:31.886Z,99673.00
2018-08-19T03:25:35.641Z,99673.00
2018-08-19T03:27:39.360Z,99671.00
2018-08-19T03:29:49.061Z,99669.00
2018-08-19T03:31:58.417Z,99665.00
2018-08-19T03:34:02.409Z,99666.00
2018-08-19T03:36:06.644Z,99666.00
2018-08-19T03:38:13.825Z,99669.00
2018-08-19T03:40:17.523Z,99672.00
2018-08-19T03:42:21.981Z,99672.00
2018-08-19T03:44:25.668Z,99672.00
2018-08-19T03:46:29.751Z,99669.00
2018-08-19T03:48:38.581Z,99674.00
2018-08-19T03:50:44.784Z,99673.00
2018-08-19T03:52:50.787Z,99677.00
2018-08-19T03:54:54.735Z,99676.00
2018-08-19T03:56:58.578Z,99678.00
2018-08-19T03:59:06.204Z,99679.00
2018-08-19T04:01:09.735Z,99675.00
2018-08-19T04:03:20.116Z,99673.00
2018-08-19T04:05:42.970Z,99672.00
2018-08-19T04:07:54.430Z,99673.00
2018-08-19T04:09:59.136Z,99676.00
2018-08-19T04:12:11.001Z,99679.00
2018-08-19T04:14:26.803Z,99684.00
2018-08-19T04:16:31.094Z,99688.00
2018-08-19T04:18:46.721Z,99681.00
2018-08-19T04:20:54.753Z,99682.00
2018-08-19T04:22:58.835Z,99687.00
2018-08-19T04:25:02.590Z,99686.00
2018-08-19T04:27:07.707Z,99690.00
2018-08-19T04:29:16.518Z,99685.00
2018-08-19T04:31:23.285Z,99680.00
2018-08-19T04:33:32.893Z,99682.00
2018-08-19T04:35:37.178Z,99683.00
2018-08-19T04:37:45.161Z,99687.00
2018-08-19T04:39:51.361Z,99692.00
2018-08-19T04:41:56.915Z,99699.00
2018-08-19T04:44:00.835Z,99694.00
2018-08-19T04:46:04.755Z,99696.00
2018-08-19T04:48:08.641Z,99697.00
2018-08-19T04:50:12.710Z,99693.00
2018-08-19T04:52:20.725Z,99695.00
2018-08-19T04:54:24.453Z,99693.00
2018-08-19T04:56:28.773Z,99694.00
2018-08-19T04:58:32.691Z,99698.00
2018-08-19T05:00:36.454Z,99697.00
2018-08-19T05:02:40.696Z,99699.00
2018-08-19T05:04:44.254Z,99701.00
2018-08-19T05:06:51.567Z,99706.00
2018-08-19T05:11:06.310Z,99702.00
2018-08-19T05:13:17.330Z,99710.00
2018-08-19T05:15:21.994Z,99705.00
2018-08-19T05:17:25.650Z,99708.00
2018-08-19T05:19:29.577Z,99715.00
2018-08-19T05:21:33.802Z,99710.00
2018-08-19T05:23:38.418Z,99716.00
2018-08-19T05:25:48.357Z,99714.00
2018-08-19T05:28:00.962Z,99711.00
2018-08-19T05:30:08.162Z,99720.00
2018-08-19T05:32:14.331Z,99716.00
2018-08-19T05:34:23.815Z,99722.00
2018-08-19T05:36:31.781Z,99719.00
2018-08-19T05:38:35.687Z,99723.00
2018-08-19T05:40:47.134Z,99719.00
2018-08-19T05:42:56.752Z,99721.00
2018-08-19T05:45:04.974Z,99726.00
2018-08-19T05:47:11.673Z,99728.00
2018-08-19T05:49:15.682Z,99726.00
2018-08-19T05:51:19.877Z,99721.00
2018-08-19T05:53:29.358Z,99721.00
2018-08-19T05:55:33.159Z,99722.00
2018-08-19T05:57:36.930Z,99725.00
2018-08-19T05:59:40.942Z,99725.00
2018-08-19T06:01:44.572Z,99734.00
2018-08-19T06:03:48.192Z,99736.00
2018-08-19T06:05:53.750Z,99729.00
2018-08-19T06:08:05.756Z,99736.00
2018-08-19T06:10:09.833Z,99735.00
2018-08-19T06:12:13.765Z,99737.00
2018-08-19T06:14:17.631Z,99734.00
2018-08-19T06:16:21.542Z,99727.00
2018-08-19T06:18:27.984Z,99734.00
2018-08-19T06:20:35.260Z,99734.00
2018-08-19T06:22:41.781Z,99734.00
2018-08-19T06:24:46.615Z,99735.00
2018-08-19T06:26:50.502Z,99736.00
2018-08-19T06:28:54.365Z,99731.00
2018-08-19T06:30:58.775Z,99731.00
2018-08-19T06:33:02.957Z,99733.00
2018-08-19T06:35:07.178Z,99730.00
2018-08-19T06:37:11.121Z,99733.00
2018-08-19T06:39:15.396Z,99736.00
2018-08-19T06:41:19.531Z,99737.00
2018-08-19T06:43:23.884Z,99733.00
2018-08-19T06:45:28.058Z,99735.00
2018-08-19T06:47:36.031Z,99736.00
2018-08-19T06:49:46.895Z,99733.00
2018-08-19T06:51:51.339Z,99731.00
2018-08-19T06:53:55.508Z,99737.00
2018-08-19T06:56:00.664Z,99731.00
2018-08-19T06:58:04.928Z,99727.00
2018-08-19T07:00:14.513Z,99725.00
2018-08-19T07:02:19.096Z,99726.00
2018-08-19T07:04:23.291Z,99724.00
2018-08-19T07:06:27.964Z,99722.00
2018-08-19T07:08:33.660Z,99720.00
2018-08-19T07:10:45.236Z,99720.00
2018-08-19T07:12:56.955Z,99718.00
2018-08-19T07:15:04.797Z,99719.00
2018-08-19T07:17:10.776Z,99717.00
2018-08-19T07:19:17.309Z,99721.00
2018-08-19T07:21:27.530Z,99726.00
2018-08-19T07:23:35.816Z,99723.00
2018-08-19T07:25:46.238Z,99716.00
2018-08-19T07:27:58.501Z,99720.00
2018-08-19T07:30:06.535Z,99716.00
2018-08-19T07:32:15.352Z,99719.00
2018-08-19T07:34:25.494Z,99714.00
2018-08-19T07:36:30.360Z,99716.00
2018-08-19T07:38:40.243Z,99713.00
2018-08-19T07:40:52.524Z,99717.00
2018-08-19T07:42:57.527Z,99714.00
2018-08-19T07:45:04.621Z,99714.00
2018-08-19T07:47:11.431Z,99710.00
2018-08-19T07:49:22.678Z,99706.00
2018-08-19T07:51:26.474Z,99706.00
2018-08-19T07:53:30.656Z,99709.00
2018-08-19T07:55:34.787Z,99710.00
2018-08-19T07:57:48.870Z,99712.00
2018-08-19T07:59:57.348Z,99711.00
2018-08-19T08:02:02.458Z,99711.00
2018-08-19T08:04:17.838Z,99708.00
2018-08-19T08:06:24.030Z,99709.00
2018-08-19T08:08:28.283Z,99708.00
2018-08-19T08:10:32.377Z,99709.00
2018-08-19T08:12:36.244Z,99708.00
2018-08-19T08:14:45.360Z,99705.00
2018-08-19T08:16:55.946Z,99705.00
2018-08-19T08:19:01.517Z,99709.00
2018-08-19T08:21:15.511Z,99703.00
2018-08-19T08:23:22.660Z,99700.00
2018-08-19T08:25:26.972Z,99702.00
2018-08-19T08:27:31.867Z,99700.00
2018-08-19T08:29:37.047Z,99697.00
2018-08-19T08:31:47.566Z,99695.00
2018-08-19T08:33:56.166Z,99695.00
2018-08-19T08:36:03.303Z,99696.00
2018-08-19T08:38:09.089Z,99691.00
2018-08-19T08:40:13.498Z,99692.00
2018-08-19T08:42:17.177Z,99691.00
2018-08-19T08:44:21.680Z,99685.00
2018-08-19T08:46:26.965Z,99686.00
2018-08-19T08:48:32.567Z,99688.00
2018-08-19T08:50:37.582Z,99682.00
2018-08-19T08:52:44.015Z,99678.00
2018-08-19T08:54:58.181Z,99674.00
2018-08-19T08:57:07.318Z,99670.00
2018-08-19T08:59:14.312Z,99672.00
2018-08-19T09:01:18.583Z,99667.00
2018-08-19T09:03:23.092Z,99665.00
2018-08-19T09:05:27.487Z,99661.00
2018-08-19T09:07:31.183Z,99663.00
2018-08-19T09:09:36.672Z,99662.00
2018-08-19T09:11:40.410Z,99660.00
2018-08-19T09:13:46.687Z,99651.00
2018-08-19T09:15:51.089Z,99656.00
2018-08-19T09:17:54.962Z,99654.00
2018-08-19T09:19:59.159Z,99653.00
2018-08-19T09:22:06.421Z,99651.00
2018-08-19T09:24:12.617Z,99645.00
2018-08-19T09:26:17.247Z,99642.00
2018-08-19T09:28:25.756Z,99638.00
2018-08-19T09:30:42.482Z,99638.00
2018-08-19T09:32:58.515Z,99633.00
2018-08-19T09:35:06.784Z,99632.00
2018-08-19T09:37:13.169Z,99627.00
2018-08-19T09:39:17.920Z,99626.00
2018-08-19T09:41:22.797Z,99632.00
2018-08-19T09:43:27.932Z,99628.00
2018-08-19T09:45:39.606Z,99624.00
2018-08-19T09:47:45.746Z,99622.00
2018-08-19T09:49:50.277Z,99623.00
2018-08-19T09:51:55.288Z,99614.00
2018-08-19T09:54:26.363Z,99614.00
2018-08-19T09:56:37.753Z,99611.00
2018-08-19T09:58:49.220Z,99612.00
2018-08-19T10:01:00.358Z,99606.00
2018-08-19T10:03:04.944Z,99603.00
2018-08-19T10:05:13.841Z,99601.00
2018-08-19T10:07:19.434Z,99601.00
2018-08-19T10:09:23.443Z,99596.00
2018-08-19T10:11:28.809Z,99591.00
2018-08-19T10:13:33.890Z,99588.00
2018-08-19T10:15:43.295Z,99585.00
2018-08-19T10:17:50.692Z,99581.00
2018-08-19T10:19:57.088Z,99575.00
2018-08-19T10:22:03.083Z,99573.00
2018-08-19T10:24:23.850Z,99572.00
2018-08-19T10:26:29.316Z,99570.00
2018-08-19T10:28:34.092Z,99570.00
2018-08-19T10:30:48.515Z,99568.00
2018-08-19T10:33:04.140Z,99564.00
2018-08-19T10:35:18.340Z,99560.00
2018-08-19T10:37:23.593Z,99555.00
2018-08-19T10:39:28.521Z,99555.00
2018-08-19T10:41:34.357Z,99562.00
2018-08-19T10:43:38.494Z,99561.00
2018-08-19T10:45:51.073Z,99564.00
2018-08-19T10:48:01.436Z,99557.00
2018-08-19T10:50:10.139Z,99553.00
2018-08-19T10:52:21.397Z,99547.00
2018-08-19T10:54:26.197Z,99550.00
2018-08-19T10:56:31.134Z,99547.00
2018-08-19T10:58:37.889Z,99537.00
2018-08-19T11:00:50.911Z,99536.00
2018-08-19T11:03:01.364Z,99540.00
2018-08-19T11:05:06.419Z,99531.00
2018-08-19T11:07:11.711Z,99538.00
2018-08-19T11:09:16.863Z,99533.00
2018-08-19T11:11:21.710Z,99532.00
2018-08-19T11:13:26.984Z,99549.00
2018-08-19T11:15:44.142Z,99536.00
2018-08-19T11:17:51.982Z,99531.00
2018-08-19T11:20:00.400Z,99536.00
2018-08-19T11:22:05.691Z,99519.00
2018-08-19T11:24:21.122Z,99521.00
2018-08-19T11:28:38.995Z,99516.00
2018-08-19T11:30:44.533Z,99510.00
2018-08-19T11:32:51.982Z,99509.00
2018-08-19T11:35:03.740Z,99510.00
2018-08-19T11:37:10.969Z,99506.00
2018-08-19T11:39:17.197Z,99505.00
2018-08-19T11:41:25.918Z,99504.00
2018-08-19T11:43:39.033Z,99495.00
2018-08-19T11:45:45.223Z,99508.00
2018-08-19T11:47:58.740Z,99500.00
2018-08-19T11:52:24.282Z,99504.00
2018-08-19T11:54:30.498Z,99493.00
2018-08-19T11:56:35.921Z,99503.00
2018-08-19T11:58:48.267Z,99496.00
2018-08-19T12:00:58.472Z,99492.00
2018-08-19T12:03:04.153Z,99491.00
2018-08-19T12:05:13.204Z,99493.00
2018-08-19T12:07:18.801Z,99486.00
2018-08-19T12:09:24.532Z,99482.00
2018-08-19T12:11:38.957Z,99472.00
2018-08-19T12:13:45.273Z,99490.00
2018-08-19T12:15:50.025Z,99500.00
2018-08-19T12:17:54.553Z,99496.00
2018-08-19T12:20:04.349Z,99489.00
2018-08-19T12:22:09.716Z,99485.00
2018-08-19T12:24:42.360Z,99481.00
2018-08-19T12:26:48.260Z,99487.00
2018-08-19T12:28:52.902Z,99475.00
2018-08-19T12:30:56.841Z,99462.00
2018-08-19T12:33:11.607Z,99455.00
2018-08-19T12:35:17.160Z,99451.00
2018-08-19T12:37:22.791Z,99451.00
2018-08-19T12:39:26.839Z,99465.00
2018-08-19T12:41:35.686Z,99450.00
2018-08-19T12:43:47.930Z,99450.00
2018-08-19T12:45:53.031Z,99439.00
2018-08-19T12:47:57.892Z,99436.00
2018-08-19T12:50:05.080Z,99435.00
2018-08-19T12:52:10.136Z,99429.00
2018-08-19T12:54:14.941Z,99432.00
2018-08-19T12:56:19.701Z,99422.00
2018-08-19T12:58:26.352Z,99418.00
2018-08-19T13:00:31.305Z,99422.00
2018-08-19T13:02:41.444Z,99429.00
2018-08-19T13:04:46.664Z,99437.00
2018-08-19T13:07:10.685Z,99428.00
2018-08-19T13:09:15.662Z,99419.00
2018-08-19T13:11:21.865Z,99418.00
2018-08-19T13:13:26.130Z,99403.00
2018-08-19T13:15:33.597Z,99405.00
2018-08-19T13:17:37.858Z,99397.00
2018-08-19T13:19:47.905Z,99393.00
2018-08-19T13:21:52.950Z,99388.00
2018-08-19T13:23:57.628Z,99394.00
2018-08-19T13:26:03.346Z,99396.00
2018-08-19T13:28:07.862Z,99396.00
2018-08-19T13:30:14.723Z,99381.00
2018-08-19T13:32:18.943Z,99367.00
2018-08-19T13:34:24.608Z,99350.00
2018-08-19T13:36:28.533Z,99340.00
2018-08-19T13:38:38.753Z,99336.00
2018-08-19T13:40:44.327Z,99333.00
2018-08-19T13:42:56.448Z,99333.00
2018-08-19T13:45:10.702Z,99326.00
2018-08-19T13:47:14.360Z,99323.00
2018-08-19T13:49:23.001Z,99319.00
2018-08-19T13:51:27.486Z,99312.00
2018-08-19T13:53:31.213Z,99313.00
2018-08-19T13:55:35.115Z,99306.00
2018-08-19T13:57:39.491Z,99309.00
2018-08-19T13:59:47.604Z,99312.00
2018-08-19T14:01:57.084Z,99311.00
2018-08-19T14:04:03.746Z,99290.00
2018-08-19T14:06:09.128Z,99280.00
2018-08-19T14:10:22.497Z,99275.00
2018-08-19T14:12:27.582Z,99280.00
2018-08-19T14:14:33.234Z,99277.00
2018-08-19T14:16:37.918Z,99286.00
2018-08-19T14:18:41.816Z,99285.00
2018-08-19T14:20:46.471Z,99278.00
2018-08-19T14:22:55.815Z,99282.00
2018-08-19T14:25:01.123Z,99276.00
2018-08-19T14:27:08.808Z,99272.00
2018-08-19T14:29:12.730Z,99273.00
2018-08-19T14:31:22.068Z,99260.00
2018-08-19T14:33:26.641Z,99270.00
2018-08-19T14:35:31.706Z,99259.00
2018-08-19T14:37:35.713Z,99265.00
2018-08-19T14:39:39.657Z,99271.00
2018-08-19T14:41:43.961Z,99259.00
2018-08-19T14:44:04.774Z,99270.00
2018-08-19T14:46:12.241Z,99268.00
2018-08-19T14:48:16.261Z,99248.00
2018-08-19T14:50:21.018Z,99243.00
2018-08-19T14:52:27.393Z,99245.00
2018-08-19T14:54:32.771Z,99245.00
2018-08-19T14:56:36.600Z,99243.00
2018-08-19T14:58:40.708Z,99247.00
2018-08-19T15:00:47.091Z,99246.00
2018-08-19T15:02:51.845Z,99255.00
2018-08-19T15:04:56.102Z,99252.00
2018-08-19T15:07:00.815Z,99246.00
2018-08-19T15:09:09.271Z,99250.00
2018-08-19T15:11:13.426Z,99256.00
2018-08-19T15:13:21.774Z,99239.00
2018-08-19T15:15:27.093Z,99276.00
2018-08-19T15:17:36.383Z,99260.00
2018-08-19T15:19:52.126Z,99233.00
2018-08-19T15:21:58.076Z,99240.00
2018-08-19T15:24:03.321Z,99236.00
2018-08-19T15:26:08.438Z,99226.00
2018-08-19T15:28:13.130Z,99220.00
2018-08-19T15:30:21.485Z,99223.00
2018-08-19T15:32:26.098Z,99220.00
2018-08-19T15:34:32.368Z,99220.00
2018-08-19T15:36:40.171Z,99243.00
2018-08-19T15:39:12.239Z,99225.00
2018-08-19T15:41:17.920Z,99219.00
2018-08-19T15:43:21.787Z,99243.00
2018-08-19T15:45:28.714Z,99219.00
2018-08-19T15:47:35.119Z,99208.00
2018-08-19T15:49:43.664Z,99218.00
2018-08-19T15:51:50.338Z,99212.00
2018-08-19T15:53:54.402Z,99238.00
2018-08-19T15:55:58.339Z,99236.00
2018-08-19T15:58:04.251Z,99254.00
2018-08-19T16:00:09.762Z,99218.00
2018-08-19T16:02:14.103Z,99206.00
2018-08-19T16:04:19.953Z,99216.00
2018-08-19T16:06:24.504Z,99220.00
2018-08-19T16:08:31.632Z,99215.00
2018-08-19T16:10:35.308Z,99208.00
2018-08-19T16:12:45.814Z,99216.00
2018-08-19T16:14:54.215Z,99222.00
2018-08-19T16:17:02.406Z,99224.00
2018-08-19T16:19:08.413Z,99209.00
2018-08-19T16:21:14.160Z,99202.00
2018-08-19T16:23:19.421Z,99209.00
2018-08-19T16:25:24.444Z,99220.00
2018-08-19T16:27:28.923Z,99203.00
2018-08-19T16:29:33.424Z,99203.00
2018-08-19T16:31:37.271Z,99194.00
2018-08-19T16:33:41.718Z,99198.00
2018-08-19T16:35:49.052Z,99224.00
2018-08-19T16:37:57.979Z,99207.00
2018-08-19T16:40:02.556Z,99203.00
2018-08-19T16:42:06.767Z,99193.00
2018-08-19T16:44:11.045Z,99193.00
2018-08-19T16:46:15.120Z,99205.00
2018-08-19T16:48:20.280Z,99206.00
2018-08-19T16:50:25.103Z,99188.00
2018-08-19T16:52:32.210Z,99183.00
2018-08-19T16:54:39.098Z,99184.00
2018-08-19T16:56:50.552Z,99190.00
2018-08-19T16:59:04.663Z,99182.00
2018-08-19T17:01:09.463Z,99191.00
2018-08-19T17:03:26.431Z,99197.00
2018-08-19T17:05:36.787Z,99191.00
2018-08-19T17:07:41.519Z,99206.00
2018-08-19T17:09:45.420Z,99199.00
2018-08-19T17:11:53.974Z,99181.00
2018-08-19T17:14:03.466Z,99185.00
2018-08-19T17:16:10.610Z,99193.00
2018-08-19T17:18:17.848Z,99189.00
2018-08-19T17:20:25.278Z,99186.00
2018-08-19T17:22:30.413Z,99178.00
2018-08-19T17:24:34.658Z,99191.00
2018-08-19T17:26:43.976Z,99187.00
2018-08-19T17:28:49.755Z,99187.00
2018-08-19T17:30:57.359Z,99187.00
2018-08-19T17:33:11.351Z,99201.00
2018-08-19T17:35:20.694Z,99201.00
2018-08-19T17:37:24.733Z,99190.00
2018-08-19T17:39:31.563Z,99195.00
2018-08-19T17:41:35.770Z,99198.00
2018-08-19T17:43:42.965Z,99194.00
2018-08-19T17:45:50.244Z,99192.00
2018-08-19T17:47:56.064Z,99190.00
2018-08-19T17:50:03.865Z,99204.00
2018-08-19T17:52:09.546Z,99198.00
2018-08-19T17:54:19.087Z,99212.00
2018-08-19T17:56:30.748Z,99209.00
2018-08-19T17:58:37.335Z,99207.00
2018-08-19T18:00:42.814Z,99207.00
2018-08-19T18:02:46.860Z,99214.00
2018-08-19T18:04:50.928Z,99211.00
2018-08-19T18:06:54.974Z,99212.00
2018-08-19T18:08:58.521Z,99209.00
2018-08-19T18:11:02.660Z,99211.00
2018-08-19T18:13:07.976Z,99208.00
2018-08-19T18:15:13.954Z,99212.00
2018-08-19T18:17:18.216Z,99215.00
2018-08-19T18:19:23.973Z,99216.00
2018-08-19T18:21:30.586Z,99219.00
2018-08-19T18:23:38.845Z,99224.00
2018-08-19T18:25:49.207Z,99231.00
2018-08-19T18:27:55.622Z,99224.00
2018-08-19T18:30:03.699Z,99218.00
2018-08-19T18:32:10.889Z,99221.00
2018-08-19T18:34:17.137Z,99216.00
2018-08-19T18:36:25.027Z,99227.00
2018-08-19T18:38:32.011Z,99220.00
2018-08-19T18:40:39.913Z,99222.00
2018-08-19T18:42:49.715Z,99222.00
2018-08-19T18:44:59.083Z,99218.00
2018-08-19T18:47:05.390Z,99226.00
2018-08-19T18:49:15.887Z,99222.00
2018-08-19T18:51:21.812Z,99225.00
2018-08-19T18:53:27.164Z,99224.00
2018-08-19T18:55:34.679Z,99229.00
2018-08-19T18:57:48.227Z,99231.00
2018-08-19T18:59:55.966Z,99229.00
2018-08-19T19:02:05.770Z,99227.00
2018-08-19T19:04:12.157Z,99235.00
2018-08-19T19:06:17.475Z,99240.00
2018-08-19T19:08:26.505Z,99245.00
2018-08-19T19:10:31.593Z,99240.00
2018-08-19T19:12:37.520Z,99242.00
2018-08-19T19:14:46.620Z,99239.00
2018-08-19T19:17:01.653Z,99239.00
2018-08-19T19:19:09.081Z,99245.00
2018-08-19T19:21:27.315Z,99249.00
2018-08-19T19:23:37.428Z,99248.00
2018-08-19T19:25:46.435Z,99248.00
2018-08-19T19:28:01.849Z,99241.00
2018-08-19T19:30:17.643Z,99239.00
2018-08-19T19:32:31.916Z,99242.00
2018-08-19T19:34:39.182Z,99243.00
2018-08-19T19:39:05.981Z,99239.00
2018-08-19T19:41:13.983Z,99241.00
2018-08-19T19:43:21.683Z,99242.00
2018-08-19T19:45:30.739Z,99241.00
2018-08-19T19:47:37.270Z,99237.00
2018-08-19T19:50:02.015Z,99240.00
2018-08-19T19:52:10.851Z,99242.00
2018-08-19T19:54:16.447Z,99240.00
2018-08-19T19:56:29.964Z,99240.00
2018-08-19T19:58:36.756Z,99242.00
2018-08-19T20:00:57.403Z,99243.00
2018-08-19T20:03:14.536Z,99241.00
2018-08-19T20:05:24.935Z,99247.00
2018-08-19T20:07:30.710Z,99242.00
2018-08-19T20:09:39.362Z,99240.00
2018-08-19T20:11:47.951Z,99241.00
2018-08-19T20:13:57.061Z,99238.00
2018-08-19T20:16:07.027Z,99242.00
2018-08-19T20:18:22.535Z,99241.00
2018-08-19T20:20:33.698Z,99238.00
2018-08-19T20:22:40.848Z,99241.00
2018-08-19T20:24:46.032Z,99239.00
2018-08-19T20:26:53.561Z,99242.00
2018-08-19T20:29:07.663Z,99238.00
2018-08-19T20:31:14.311Z,99240.00
2018-08-19T20:33:35.088Z,99241.00
2018-08-19T20:35:42.891Z,99239.00
2018-08-19T20:37:48.651Z,99235.00
2018-08-19T20:39:55.392Z,99235.00
2018-08-19T20:42:09.636Z,99244.00
2018-08-19T20:44:14.293Z,99242.00
2018-08-19T20:46:18.602Z,99244.00
2018-08-19T20:48:23.791Z,99243.00
2018-08-19T20:50:33.998Z,99243.00
2018-08-19T20:52:45.486Z,99247.00
2018-08-19T20:54:50.721Z,99255.00
2018-08-19T20:57:03.335Z,99255.00
2018-08-19T20:59:15.422Z,99251.00
2018-08-19T21:01:25.528Z,99254.00
2018-08-19T21:03:29.558Z,99257.00
2018-08-19T21:05:37.893Z,99256.00
2018-08-19T21:07:48.502Z,99257.00
2018-08-19T21:09:52.578Z,99255.00
2018-08-19T21:11:56.704Z,99257.00
2018-08-19T21:14:00.642Z,99257.00
2018-08-19T21:16:04.250Z,99263.00
2018-08-19T21:18:09.287Z,99264.00
2018-08-19T21:20:13.222Z,99262.00
2018-08-19T21:22:17.541Z,99265.00
2018-08-19T21:24:21.811Z,99269.00
2018-08-19T21:26:25.678Z,99268.00
2018-08-19T21:28:29.277Z,99266.00
2018-08-19T21:30:35.419Z,99273.00
2018-08-19T21:32:42.817Z,99259.00
2018-08-19T21:34:49.225Z,99265.00
2018-08-19T21:36:54.547Z,99269.00
2018-08-19T21:38:58.577Z,99266.00
2018-08-19T21:41:03.012Z,99273.00
2018-08-19T21:43:09.422Z,99266.00
2018-08-19T21:45:13.606Z,99271.00
2018-08-19T21:47:20.090Z,99271.00
2018-08-19T21:49:24.369Z,99272.00
2018-08-19T21:51:29.201Z,99277.00
2018-08-19T21:53:32.969Z,99279.00
2018-08-19T21:55:41.600Z,99273.00
2018-08-19T21:57:49.818Z,99275.00
2018-08-19T21:59:58.053Z,99272.00
2018-08-19T22:02:02.268Z,99266.00
2018-08-19T22:04:06.843Z,99263.00
2018-08-19T22:06:10.714Z,99270.00
2018-08-19T22:08:19.376Z,99276.00
2018-08-19T22:10:23.283Z,99271.00
2018-08-19T22:12:28.515Z,99273.00
2018-08-19T22:14:44.340Z,99272.00
2018-08-19T22:16:52.921Z,99279.00
2018-08-19T22:19:00.579Z,99279.00
2018-08-19T22:21:23.063Z,99279.00
2018-08-19T22:23:32.493Z,99302.00
2018-08-19T22:25:36.566Z,99294.00
2018-08-19T22:27:40.193Z,99296.00
2018-08-19T22:29:46.726Z,99300.00
2018-08-19T22:31:53.898Z,99297.00
2018-08-19T22:33:59.993Z,99295.00
2018-08-19T22:36:05.062Z,99289.00
2018-08-19T22:38:15.786Z,99289.00
2018-08-19T22:40:25.186Z,99290.00
2018-08-19T22:42:29.067Z,99287.00
2018-08-19T22:44:32.818Z,99287.00
2018-08-19T22:46:37.774Z,99285.00
2018-08-19T22:48:44.450Z,99282.00
2018-08-19T22:50:54.328Z,99277.00
2018-08-19T22:52:59.687Z,99280.00
2018-08-19T22:55:06.545Z,99285.00
2018-08-19T22:57:10.225Z,99285.00
2018-08-19T22:59:14.521Z,99273.00
2018-08-19T23:01:18.343Z,99282.00
2018-08-19T23:03:21.936Z,99279.00
2018-08-19T23:05:26.462Z,99278.00
2018-08-19T23:07:31.727Z,99283.00
2018-08-19T23:09:35.537Z,99276.00
2018-08-19T23:11:45.294Z,99276.00
2018-08-19T23:14:01.320Z,99281.00
2018-08-19T23:16:10.211Z,99281.00
2018-08-19T23:18:13.873Z,99275.00
2018-08-19T23:20:17.470Z,99281.00
2018-08-19T23:22:21.562Z,99273.00
2018-08-19T23:24:26.226Z,99271.00
2018-08-19T23:26:29.740Z,99273.00
2018-08-19T23:28:33.621Z,99266.00
2018-08-19T23:30:37.453Z,99269.00
2018-08-19T23:32:45.930Z,99268.00
2018-08-19T23:34:49.547Z,99271.00
2018-08-19T23:36:58.446Z,99272.00
2018-08-19T23:39:07.295Z,99272.00
2018-08-19T23:41:12.391Z,99276.00
2018-08-19T23:43:16.887Z,99270.00
2018-08-19T23:45:20.628Z,99272.00
2018-08-19T23:47:24.310Z,99272.00
2018-08-19T23:49:28.238Z,99270.00
2018-08-19T23:51:32.195Z,99274.00
2018-08-19T23:53:35.748Z,99265.00
2018-08-19T23:55:43.211Z,99270.00
2018-08-19T23:57:47.182Z,99271.00
2018-08-19T23:59:51.042Z,99276.00
